createdAt,value
2023-01-26T00:01:46.637Z,101169.84
2023-01-26T00:03:59.832Z,101175.48
2023-01-26T00:06:15.186Z,101170.17
2023-01-26T00:08:27.745Z,101168.99
2023-01-26T00:10:41.973Z,101168.64
2023-01-26T00:12:54.572Z,101164.53
2023-01-26T00:15:07.869Z,101160.59
2023-01-26T00:17:27.140Z,101158.35
2023-01-26T00:19:39.795Z,101156.29
2023-01-26T00:21:52.371Z,101157.83
2023-01-26T00:24:05.238Z,101156.96
2023-01-26T00:26:20.645Z,101154.73
2023-01-26T00:28:33.176Z,101154.92
2023-01-26T00:30:45.867Z,101156.13
2023-01-26T00:32:58.518Z,101153.89
2023-01-26T00:35:11.575Z,101152.19
2023-01-26T00:37:24.100Z,101144.48
2023-01-26T00:39:36.718Z,101144.14
2023-01-26T00:42:09.840Z,101142.77
2023-01-26T00:44:22.467Z,101145.49
2023-01-26T00:46:35.200Z,101144.27
2023-01-26T00:48:47.765Z,101141.00
2023-01-26T00:51:00.318Z,101143.40
2023-01-26T00:53:13.104Z,101144.05
2023-01-26T00:55:32.203Z,101143.52
2023-01-26T00:57:44.814Z,101139.92
2023-01-26T00:59:57.561Z,101143.36
2023-01-26T01:02:10.172Z,101140.13
2023-01-26T01:04:22.816Z,101139.80
2023-01-26T01:06:35.629Z,101141.67
2023-01-26T01:08:48.175Z,101143.73
2023-01-26T01:11:05.483Z,101139.62
2023-01-26T01:13:18.031Z,101139.11
2023-01-26T01:15:30.597Z,101138.79
2023-01-26T01:17:43.177Z,101138.13
2023-01-26T01:19:55.791Z,101137.77
2023-01-26T01:22:08.354Z,101129.55
2023-01-26T01:24:21.084Z,101132.65
2023-01-26T01:26:33.755Z,101128.88
2023-01-26T01:28:46.516Z,101135.54
2023-01-26T01:30:59.553Z,101138.11
2023-01-26T01:33:12.199Z,101138.28
2023-01-26T01:35:24.711Z,101134.16
2023-01-26T01:37:37.360Z,101131.58
2023-01-26T01:39:49.904Z,101133.30
2023-01-26T01:42:02.521Z,101134.99
2023-01-26T01:44:25.828Z,101129.16
2023-01-26T01:46:40.432Z,101124.70
2023-01-26T01:48:58.761Z,101120.77
2023-01-26T01:51:20.460Z,101118.36
2023-01-26T01:53:37.574Z,101115.98
2023-01-26T01:56:01.386Z,101114.95
2023-01-26T01:58:14.584Z,101111.00
2023-01-26T02:00:27.834Z,101106.55
2023-01-26T02:02:43.241Z,101103.11
2023-01-26T02:05:00.709Z,101096.95
2023-01-26T02:07:13.748Z,101092.34
2023-01-26T02:09:50.401Z,101093.37
2023-01-26T02:12:05.987Z,101091.14
2023-01-26T02:14:18.627Z,101087.54
2023-01-26T02:16:31.247Z,101082.39
2023-01-26T02:18:45.648Z,101081.89
2023-01-26T02:21:02.561Z,101082.05
2023-01-26T02:23:47.303Z,101077.93
2023-01-26T02:26:07.147Z,101077.23
2023-01-26T02:28:24.672Z,101077.73
2023-01-26T02:30:37.432Z,101075.67
2023-01-26T02:32:50.014Z,101073.10
2023-01-26T02:35:02.616Z,101071.56
2023-01-26T02:37:15.479Z,101070.21
2023-01-26T02:39:41.532Z,101062.67
2023-01-26T02:42:13.164Z,101060.45
2023-01-26T02:44:27.357Z,101058.20
2023-01-26T02:46:40.155Z,101053.59
2023-01-26T02:49:11.662Z,101048.80
2023-01-26T02:51:24.308Z,101046.39
2023-01-26T02:53:36.866Z,101041.24
2023-01-26T02:55:49.518Z,101039.02
2023-01-26T02:58:04.385Z,101038.17
2023-01-26T03:00:25.956Z,101036.45
2023-01-26T03:02:40.749Z,101035.42
2023-01-26T03:04:53.303Z,101033.70
2023-01-26T03:07:05.825Z,101033.52
2023-01-26T03:09:18.722Z,101032.33
2023-01-26T03:11:42.015Z,101029.59
2023-01-26T03:13:54.627Z,101027.37
2023-01-26T03:16:10.242Z,101022.40
2023-01-26T03:18:41.792Z,101019.48
2023-01-26T03:21:12.727Z,101014.67
2023-01-26T03:23:44.204Z,101013.64
2023-01-26T03:26:15.667Z,101007.98
2023-01-26T03:28:28.268Z,101005.41
2023-01-26T03:30:40.831Z,101006.96
2023-01-26T03:32:53.382Z,101001.49
2023-01-26T03:35:06.976Z,100996.67
2023-01-26T03:37:22.670Z,100994.45
2023-01-26T03:39:53.965Z,100988.98
2023-01-26T03:42:25.638Z,100994.29
2023-01-26T03:44:56.989Z,100990.86
2023-01-26T03:47:28.297Z,100988.81
2023-01-26T03:49:59.827Z,100986.41
2023-01-26T03:52:31.207Z,100983.15
2023-01-26T03:55:02.719Z,100981.42
2023-01-26T03:57:15.293Z,100981.27
2023-01-26T03:59:40.078Z,100981.95
2023-01-26T04:02:11.509Z,100979.21
2023-01-26T04:04:42.951Z,100973.71
2023-01-26T04:07:14.044Z,100969.08
2023-01-26T04:09:27.258Z,100966.67
2023-01-26T04:11:39.866Z,100965.99
2023-01-26T04:14:11.053Z,100972.51
2023-01-26T04:16:42.355Z,100971.13
2023-01-26T04:19:14.104Z,100970.96
2023-01-26T04:21:26.707Z,100970.27
2023-01-26T04:23:39.328Z,100972.67
2023-01-26T04:25:51.827Z,100975.06
2023-01-26T04:28:04.566Z,100975.75
2023-01-26T04:30:18.106Z,100974.02
2023-01-26T04:32:30.992Z,100973.86
2023-01-26T04:34:43.641Z,100971.30
2023-01-26T04:36:56.220Z,100969.23
2023-01-26T04:39:09.338Z,100971.99
2023-01-26T04:41:22.209Z,100967.52
2023-01-26T04:43:34.817Z,100968.20
2023-01-26T04:46:16.906Z,100965.63
2023-01-26T04:48:30.047Z,100961.52
2023-01-26T04:50:42.584Z,100961.35
2023-01-26T04:52:55.105Z,100955.02
2023-01-26T04:55:08.021Z,100953.48
2023-01-26T04:57:21.284Z,100954.17
2023-01-26T04:59:34.244Z,100952.63
2023-01-26T05:01:47.241Z,100955.02
2023-01-26T05:04:03.278Z,100950.23
2023-01-26T05:06:16.166Z,100949.37
2023-01-26T05:08:28.727Z,100949.22
2023-01-26T05:10:41.345Z,100947.14
2023-01-26T05:12:53.966Z,100945.61
2023-01-26T05:15:06.948Z,100944.06
2023-01-26T05:17:19.535Z,100941.13
2023-01-26T05:19:32.325Z,100938.40
2023-01-26T05:21:44.922Z,100941.49
2023-01-26T05:23:57.584Z,100942.00
2023-01-26T05:26:11.697Z,100943.38
2023-01-26T05:28:24.473Z,100941.33
2023-01-26T05:30:37.204Z,100934.65
2023-01-26T05:32:49.948Z,100936.70
2023-01-26T05:35:03.295Z,100932.77
2023-01-26T05:37:15.824Z,100936.19
2023-01-26T05:39:28.440Z,100935.85
2023-01-26T05:41:40.999Z,100937.90
2023-01-26T05:43:53.570Z,100939.95
2023-01-26T05:46:06.250Z,100938.92
2023-01-26T05:48:18.936Z,100938.40
2023-01-26T05:50:31.911Z,100939.42
2023-01-26T05:52:46.622Z,100936.02
2023-01-26T05:54:59.316Z,100939.42
2023-01-26T05:57:12.382Z,100937.73
2023-01-26T05:59:25.010Z,100931.90
2023-01-26T06:01:37.665Z,100930.70
2023-01-26T06:03:50.235Z,100928.64
2023-01-26T06:06:02.835Z,100924.02
2023-01-26T06:08:15.406Z,100920.09
2023-01-26T06:10:27.983Z,100917.19
2023-01-26T06:12:42.958Z,100915.29
2023-01-26T06:14:58.427Z,100917.50
2023-01-26T06:17:18.236Z,100916.47
2023-01-26T06:19:30.846Z,100916.45
2023-01-26T06:21:43.434Z,100915.96
2023-01-26T06:23:56.037Z,100913.90
2023-01-26T06:26:10.811Z,100911.00
2023-01-26T06:28:23.622Z,100913.41
2023-01-26T06:30:36.369Z,100917.85
2023-01-26T06:32:49.021Z,100919.56
2023-01-26T06:35:09.229Z,100921.45
2023-01-26T06:37:21.839Z,100924.20
2023-01-26T06:39:34.513Z,100921.11
2023-01-26T06:41:47.053Z,100920.27
2023-01-26T06:43:59.639Z,100925.22
2023-01-26T06:46:12.496Z,100925.23
2023-01-26T06:48:26.997Z,100924.20
2023-01-26T06:50:39.823Z,100923.17
2023-01-26T06:52:56.133Z,100923.54
2023-01-26T06:55:21.025Z,100922.84
2023-01-26T06:57:33.606Z,100922.84
2023-01-26T06:59:46.143Z,100919.58
2023-01-26T07:01:58.823Z,100924.55
2023-01-26T07:04:11.468Z,100925.08
2023-01-26T07:06:24.012Z,100925.76
2023-01-26T07:08:37.550Z,100927.80
2023-01-26T07:10:51.117Z,100931.07
2023-01-26T07:13:05.369Z,100928.66
2023-01-26T07:15:18.068Z,100928.17
2023-01-26T07:17:31.840Z,100929.01
2023-01-26T07:19:45.310Z,100926.09
2023-01-26T07:21:58.139Z,100927.80
2023-01-26T07:24:10.949Z,100927.82
2023-01-26T07:26:23.586Z,100922.33
2023-01-26T07:28:38.615Z,100922.86
2023-01-26T07:30:53.621Z,100919.25
2023-01-26T07:33:06.124Z,100918.05
2023-01-26T07:35:26.079Z,100913.95
2023-01-26T07:37:38.875Z,100913.94
2023-01-26T07:39:51.386Z,100915.13
2023-01-26T07:42:06.260Z,100912.40
2023-01-26T07:44:18.784Z,100913.43
2023-01-26T07:46:35.630Z,100910.35
2023-01-26T07:48:48.213Z,100910.51
2023-01-26T07:51:03.553Z,100910.34
2023-01-26T07:53:22.877Z,100908.98
2023-01-26T07:55:37.020Z,100912.40
2023-01-26T07:57:49.907Z,100913.77
2023-01-26T08:00:04.054Z,100918.91
2023-01-26T08:02:16.587Z,100925.27
2023-01-26T08:04:29.215Z,100924.22
2023-01-26T08:06:42.060Z,100923.20
2023-01-26T08:08:54.668Z,100926.80
2023-01-26T08:11:08.701Z,100923.52
2023-01-26T08:13:34.399Z,100921.98
2023-01-26T08:15:47.487Z,100926.27
2023-01-26T08:18:03.625Z,100931.06
2023-01-26T08:20:16.588Z,100931.05
2023-01-26T08:22:29.086Z,100931.38
2023-01-26T08:24:41.652Z,100930.54
2023-01-26T08:26:54.482Z,100928.14
2023-01-26T08:29:07.455Z,100925.03
2023-01-26T08:31:21.672Z,100925.89
2023-01-26T08:33:34.912Z,100926.42
2023-01-26T08:35:47.468Z,100921.29
2023-01-26T08:38:00.664Z,100920.10
2023-01-26T08:40:13.696Z,100918.05
2023-01-26T08:42:26.400Z,100915.65
2023-01-26T08:44:40.171Z,100913.77
2023-01-26T08:46:52.812Z,100917.02
2023-01-26T08:49:06.354Z,100919.58
2023-01-26T08:51:18.912Z,100925.05
2023-01-26T08:53:33.180Z,100922.65
2023-01-26T08:55:45.825Z,100925.92
2023-01-26T08:57:58.755Z,100920.44
2023-01-26T09:00:12.738Z,100926.44
2023-01-26T09:02:25.820Z,100925.92
2023-01-26T09:04:38.413Z,100925.42
2023-01-26T09:06:51.425Z,100926.97
2023-01-26T09:09:04.003Z,100923.70
2023-01-26T09:11:17.352Z,100926.95
2023-01-26T09:13:29.865Z,100926.09
2023-01-26T09:15:42.409Z,100930.05
2023-01-26T09:17:55.102Z,100928.84
2023-01-26T09:20:10.091Z,100924.57
2023-01-26T09:22:22.875Z,100924.73
2023-01-26T09:24:35.420Z,100922.34
2023-01-26T09:26:48.106Z,100921.15
2023-01-26T09:29:00.655Z,100917.20
2023-01-26T09:31:13.449Z,100916.33
2023-01-26T09:33:26.832Z,100917.88
2023-01-26T09:35:39.479Z,100915.47
2023-01-26T09:37:52.059Z,100911.18
2023-01-26T09:40:06.173Z,100906.73
2023-01-26T09:42:39.280Z,100905.35
2023-01-26T09:45:07.478Z,100905.35
2023-01-26T09:47:53.550Z,100902.92
2023-01-26T09:50:22.974Z,100902.59
2023-01-26T09:52:47.152Z,100906.05
2023-01-26T09:55:03.967Z,100907.09
2023-01-26T09:57:20.888Z,100903.48
2023-01-26T09:59:54.003Z,100897.67
2023-01-26T10:02:42.195Z,100893.91
2023-01-26T10:05:01.256Z,100890.98
2023-01-26T10:07:14.993Z,100889.96
2023-01-26T10:09:33.293Z,100888.08
2023-01-26T10:11:52.898Z,100881.06
2023-01-26T10:14:15.048Z,100883.29
2023-01-26T10:16:27.634Z,100886.19
2023-01-26T10:18:54.070Z,100889.62
2023-01-26T10:21:10.501Z,100892.36
2023-01-26T10:23:32.381Z,100888.92
2023-01-26T10:25:47.065Z,100886.19
2023-01-26T10:28:00.371Z,100883.80
2023-01-26T10:30:17.248Z,100882.93
2023-01-26T10:32:32.352Z,100875.23
2023-01-26T10:34:48.211Z,100872.80
2023-01-26T10:37:22.636Z,100870.93
2023-01-26T10:39:35.217Z,100871.26
2023-01-26T10:41:59.830Z,100871.60
2023-01-26T10:44:15.071Z,100871.78
2023-01-26T10:46:34.361Z,100871.77
2023-01-26T10:48:53.051Z,100874.32
2023-01-26T10:51:21.599Z,100872.27
2023-01-26T10:53:34.276Z,100877.07
2023-01-26T10:56:00.711Z,100877.07
2023-01-26T10:58:41.582Z,100874.52
2023-01-26T11:00:57.389Z,100872.80
2023-01-26T11:03:18.879Z,100874.52
2023-01-26T11:05:31.584Z,100871.60
2023-01-26T11:07:47.369Z,100865.60
2023-01-26T11:10:18.919Z,100864.56
2023-01-26T11:12:31.574Z,100866.45
2023-01-26T11:15:00.926Z,100861.49
2023-01-26T11:17:25.979Z,100856.16
2023-01-26T11:19:55.680Z,100858.00
2023-01-26T11:22:13.227Z,100852.86
2023-01-26T11:24:30.354Z,100850.44
2023-01-26T11:26:51.950Z,100848.55
2023-01-26T11:29:23.551Z,100840.15
2023-01-26T11:31:57.572Z,100837.42
2023-01-26T11:34:28.944Z,100836.95
2023-01-26T11:37:08.723Z,100837.66
2023-01-26T11:39:24.215Z,100838.35
2023-01-26T11:41:54.327Z,100835.61
2023-01-26T11:44:40.935Z,100831.67
2023-01-26T11:47:03.883Z,100825.33
2023-01-26T11:49:47.039Z,100822.77
2023-01-26T11:52:29.231Z,100823.09
2023-01-26T11:54:59.991Z,100823.96
2023-01-26T11:57:33.501Z,100820.38
2023-01-26T11:59:57.312Z,100816.98
2023-01-26T12:02:31.803Z,100815.78
2023-01-26T12:04:46.863Z,100815.27
2023-01-26T12:07:11.297Z,100809.25
2023-01-26T12:09:39.702Z,100806.00
2023-01-26T12:12:32.797Z,100803.60
2023-01-26T12:14:53.149Z,100800.88
2023-01-26T12:17:17.723Z,100796.96
2023-01-26T12:19:45.307Z,100795.92
2023-01-26T12:22:05.315Z,100794.89
2023-01-26T12:25:00.965Z,100792.48
2023-01-26T12:27:19.159Z,100789.90
2023-01-26T12:29:54.530Z,100790.05
2023-01-26T12:32:14.543Z,100788.52
2023-01-26T12:34:29.547Z,100791.10
2023-01-26T12:36:57.199Z,100791.23
2023-01-26T12:39:37.858Z,100784.75
2023-01-26T12:42:17.326Z,100783.05
2023-01-26T12:44:39.752Z,100783.04
2023-01-26T12:46:58.570Z,100778.38
2023-01-26T12:49:25.597Z,100780.23
2023-01-26T12:51:46.808Z,100778.70
2023-01-26T12:54:02.460Z,100776.66
2023-01-26T12:56:28.698Z,100774.23
2023-01-26T12:58:45.589Z,100770.27
2023-01-26T13:01:10.310Z,100770.80
2023-01-26T13:03:31.084Z,100774.91
2023-01-26T13:05:57.638Z,100769.96
2023-01-26T13:08:33.195Z,100766.36
2023-01-26T13:10:49.958Z,100765.35
2023-01-26T13:13:14.628Z,100763.95
2023-01-26T13:15:29.981Z,100768.22
2023-01-26T13:17:49.623Z,100767.00
2023-01-26T13:20:22.138Z,100764.95
2023-01-26T13:22:42.439Z,100767.54
2023-01-26T13:25:20.251Z,100765.65
2023-01-26T13:27:40.310Z,100764.27
2023-01-26T13:29:55.390Z,100765.83
2023-01-26T13:32:13.947Z,100766.31
2023-01-26T13:34:32.275Z,100765.45
2023-01-26T13:36:48.201Z,100766.64
2023-01-26T13:39:14.384Z,100765.95
2023-01-26T13:41:27.206Z,100762.83
2023-01-26T13:44:18.563Z,100762.46
2023-01-26T13:46:38.096Z,100760.06
2023-01-26T13:48:52.959Z,100760.44
2023-01-26T13:51:09.161Z,100762.29
2023-01-26T13:53:37.460Z,100755.42
2023-01-26T13:55:57.763Z,100756.63
2023-01-26T13:58:16.984Z,100753.38
2023-01-26T14:00:29.645Z,100749.92
2023-01-26T14:02:49.514Z,100750.60
2023-01-26T14:05:03.301Z,100749.59
2023-01-26T14:07:25.142Z,100748.91
2023-01-26T14:09:48.368Z,100750.14
2023-01-26T14:12:06.322Z,100747.59
2023-01-26T14:14:27.969Z,100747.77
2023-01-26T14:16:40.651Z,100751.02
2023-01-26T14:19:12.463Z,100750.48
2023-01-26T14:21:25.078Z,100749.63
2023-01-26T14:23:37.657Z,100746.35
2023-01-26T14:26:20.308Z,100747.36
2023-01-26T14:28:40.826Z,100749.60
2023-01-26T14:31:01.707Z,100751.99
2023-01-26T14:33:16.758Z,100753.05
2023-01-26T14:35:29.822Z,100756.14
2023-01-26T14:37:42.329Z,100753.89
2023-01-26T14:40:27.874Z,100757.66
2023-01-26T14:42:41.106Z,100754.42
2023-01-26T14:44:53.658Z,100746.69
2023-01-26T14:47:16.635Z,100744.43
2023-01-26T14:49:56.257Z,100743.73
2023-01-26T14:52:21.203Z,100742.02
2023-01-26T14:54:39.467Z,100742.88
2023-01-26T14:56:52.170Z,100742.51
2023-01-26T14:59:07.778Z,100739.59
2023-01-26T15:01:25.980Z,100735.98
2023-01-26T15:03:39.022Z,100736.52
2023-01-26T15:06:05.965Z,100737.61
2023-01-26T15:08:25.273Z,100736.98
2023-01-26T15:10:41.262Z,100734.12
2023-01-26T15:13:15.164Z,100732.25
2023-01-26T15:15:33.614Z,100734.33
2023-01-26T15:17:47.895Z,100737.08
2023-01-26T15:20:00.480Z,100737.27
2023-01-26T15:22:22.085Z,100742.22
2023-01-26T15:24:34.691Z,100739.45
2023-01-26T15:26:47.324Z,100744.05
2023-01-26T15:29:03.434Z,100741.63
2023-01-26T15:31:41.672Z,100741.09
2023-01-26T15:33:55.131Z,100743.83
2023-01-26T15:36:32.738Z,100743.66
2023-01-26T15:38:45.567Z,100752.60
2023-01-26T15:40:59.206Z,100754.33
2023-01-26T15:43:20.204Z,100751.77
2023-01-26T15:45:37.071Z,100748.20
2023-01-26T15:47:50.202Z,100749.25
2023-01-26T15:50:03.044Z,100749.09
2023-01-26T15:52:18.042Z,100746.18
2023-01-26T15:54:30.577Z,100751.69
2023-01-26T15:56:43.536Z,100748.27
2023-01-26T15:58:56.177Z,100752.39
2023-01-26T16:01:20.451Z,100751.38
2023-01-26T16:03:33.047Z,100755.51
2023-01-26T16:05:49.299Z,100755.33
2023-01-26T16:08:01.828Z,100751.56
2023-01-26T16:10:17.988Z,100749.70
2023-01-26T16:12:32.272Z,100752.29
2023-01-26T16:14:45.054Z,100747.84
2023-01-26T16:16:57.533Z,100748.86
2023-01-26T16:19:20.597Z,100748.17
2023-01-26T16:21:41.055Z,100752.80
2023-01-26T16:23:54.584Z,100751.60
2023-01-26T16:26:10.746Z,100749.38
2023-01-26T16:28:24.941Z,100745.95
2023-01-26T16:30:38.492Z,100743.55
2023-01-26T16:32:51.807Z,100743.37
2023-01-26T16:35:20.238Z,100749.36
2023-01-26T16:37:32.933Z,100753.32
2023-01-26T16:39:45.479Z,100753.30
2023-01-26T16:41:57.991Z,100756.73
2023-01-26T16:44:14.159Z,100755.20
2023-01-26T16:46:28.113Z,100753.66
2023-01-26T16:48:41.170Z,100756.91
2023-01-26T16:50:54.621Z,100752.45
2023-01-26T16:53:20.364Z,100755.02
2023-01-26T16:55:32.959Z,100762.40
2023-01-26T16:57:47.376Z,100759.16
2023-01-26T16:59:59.920Z,100760.19
2023-01-26T17:02:23.889Z,100759.67
2023-01-26T17:04:36.589Z,100760.17
2023-01-26T17:06:49.213Z,100757.27
2023-01-26T17:09:01.945Z,100758.13
2023-01-26T17:11:20.235Z,100762.57
2023-01-26T17:13:32.805Z,100764.64
2023-01-26T17:15:46.560Z,100766.68
2023-01-26T17:17:59.264Z,100765.31
2023-01-26T17:20:19.348Z,100772.14
2023-01-26T17:22:32.534Z,100774.04
2023-01-26T17:24:45.182Z,100768.55
2023-01-26T17:26:57.778Z,100771.45
2023-01-26T17:29:11.359Z,100770.59
2023-01-26T17:31:24.647Z,100769.73
2023-01-26T17:33:38.381Z,100766.80
2023-01-26T17:36:00.059Z,100763.39
2023-01-26T17:38:12.683Z,100767.14
2023-01-26T17:40:25.200Z,100764.56
2023-01-26T17:42:37.771Z,100765.79
2023-01-26T17:44:51.157Z,100764.58
2023-01-26T17:47:03.924Z,100763.39
2023-01-26T17:49:16.620Z,100762.00
2023-01-26T17:51:29.154Z,100760.28
2023-01-26T17:53:43.036Z,100758.91
2023-01-26T17:55:55.612Z,100756.70
2023-01-26T17:58:10.993Z,100759.13
2023-01-26T18:00:23.545Z,100759.30
2023-01-26T18:02:37.718Z,100759.12
2023-01-26T18:04:50.451Z,100762.72
2023-01-26T18:07:03.106Z,100758.27
2023-01-26T18:09:15.832Z,100761.00
2023-01-26T18:11:28.820Z,100760.48
2023-01-26T18:13:41.767Z,100761.16
2023-01-26T18:15:55.036Z,100760.30
2023-01-26T18:18:07.603Z,100763.23
2023-01-26T18:20:20.114Z,100764.92
2023-01-26T18:22:32.784Z,100764.92
2023-01-26T18:24:45.451Z,100766.63
2023-01-26T18:26:57.982Z,100771.27
2023-01-26T18:29:11.252Z,100773.50
2023-01-26T18:31:35.583Z,100772.83
2023-01-26T18:33:49.463Z,100773.88
2023-01-26T18:36:06.961Z,100766.67
2023-01-26T18:38:19.523Z,100769.95
2023-01-26T18:40:32.098Z,100774.58
2023-01-26T18:42:44.865Z,100775.59
2023-01-26T18:45:03.494Z,100783.29
2023-01-26T18:47:16.068Z,100780.73
2023-01-26T18:49:28.628Z,100782.79
2023-01-26T18:51:47.789Z,100779.88
2023-01-26T18:54:00.957Z,100782.96
2023-01-26T18:56:15.945Z,100783.31
2023-01-26T18:58:29.493Z,100788.61
2023-01-26T19:00:43.321Z,100792.73
2023-01-26T19:02:55.997Z,100797.00
2023-01-26T19:05:09.207Z,100794.94
2023-01-26T19:07:21.900Z,100792.89
2023-01-26T19:09:35.894Z,100790.66
2023-01-26T19:11:48.584Z,100794.77
2023-01-26T19:14:02.642Z,100795.97
2023-01-26T19:16:15.404Z,100803.16
2023-01-26T19:18:28.306Z,100801.09
2023-01-26T19:20:41.349Z,100802.98
2023-01-26T19:22:55.428Z,100803.67
2023-01-26T19:25:08.436Z,100805.03
2023-01-26T19:27:21.318Z,100803.52
2023-01-26T19:29:34.007Z,100806.23
2023-01-26T19:31:46.671Z,100803.83
2023-01-26T19:34:01.651Z,100804.52
2023-01-26T19:36:14.398Z,100803.16
2023-01-26T19:38:27.182Z,100806.92
2023-01-26T19:40:39.779Z,100802.83
2023-01-26T19:42:52.336Z,100801.11
2023-01-26T19:45:05.278Z,100796.30
2023-01-26T19:47:17.850Z,100791.17
2023-01-26T19:49:30.511Z,100793.39
2023-01-26T19:51:43.270Z,100794.42
2023-01-26T19:53:58.811Z,100795.63
2023-01-26T19:56:20.305Z,100790.33
2023-01-26T19:58:33.383Z,100790.48
2023-01-26T20:00:46.240Z,100788.26
2023-01-26T20:02:58.922Z,100791.00
2023-01-26T20:05:12.037Z,100791.86
2023-01-26T20:07:25.073Z,100788.62
2023-01-26T20:09:37.880Z,100788.27
2023-01-26T20:11:50.484Z,100786.89
2023-01-26T20:14:08.547Z,100782.95
2023-01-26T20:16:21.834Z,100785.53
2023-01-26T20:18:36.165Z,100785.71
2023-01-26T20:20:50.335Z,100787.25
2023-01-26T20:23:03.842Z,100793.05
2023-01-26T20:25:16.521Z,100788.77
2023-01-26T20:27:30.187Z,100785.02
2023-01-26T20:29:43.156Z,100786.22
2023-01-26T20:31:55.807Z,100785.85
2023-01-26T20:34:09.515Z,100786.38
2023-01-26T20:36:25.796Z,100786.02
2023-01-26T20:38:39.361Z,100783.11
2023-01-26T20:40:52.254Z,100784.65
2023-01-26T20:43:04.893Z,100784.98
2023-01-26T20:45:18.371Z,100784.81
2023-01-26T20:47:33.985Z,100787.38
2023-01-26T20:49:46.780Z,100789.27
2023-01-26T20:51:59.824Z,100783.45
2023-01-26T20:54:15.219Z,100782.77
2023-01-26T20:56:27.975Z,100780.02
2023-01-26T20:58:42.727Z,100779.67
2023-01-26T21:01:03.725Z,100782.59
2023-01-26T21:03:19.213Z,100780.73
2023-01-26T21:05:32.642Z,100778.67
2023-01-26T21:07:45.625Z,100782.27
2023-01-26T21:09:58.454Z,100779.73
2023-01-26T21:12:14.769Z,100776.30
2023-01-26T21:14:27.491Z,100779.37
2023-01-26T21:16:40.703Z,100776.98
2023-01-26T21:18:54.176Z,100779.55
2023-01-26T21:21:08.547Z,100772.71
2023-01-26T21:23:21.427Z,100772.18
2023-01-26T21:25:34.009Z,100772.02
2023-01-26T21:27:46.518Z,100774.41
2023-01-26T21:29:59.085Z,100773.39
2023-01-26T21:32:11.881Z,100773.21
2023-01-26T21:34:24.531Z,100771.00
2023-01-26T21:36:37.325Z,100774.59
2023-01-26T21:38:52.112Z,100770.65
2023-01-26T21:41:28.968Z,100773.71
2023-01-26T21:43:41.687Z,100776.11
2023-01-26T21:45:58.924Z,100776.28
2023-01-26T21:48:35.755Z,100774.89
2023-01-26T21:52:37.356Z,100764.81
2023-01-26T21:54:50.066Z,100766.84
2023-01-26T21:57:04.402Z,100765.14
2023-01-26T21:59:18.343Z,100765.83
2023-01-26T22:01:32.764Z,100767.88
2023-01-26T22:03:45.417Z,100761.73
2023-01-26T22:05:58.007Z,100762.06
2023-01-26T22:08:10.635Z,100760.38
2023-01-26T22:10:23.172Z,100754.55
2023-01-26T22:12:35.741Z,100754.04
2023-01-26T22:14:50.182Z,100753.34
2023-01-26T22:17:02.741Z,100755.91
2023-01-26T22:19:15.464Z,100754.71
2023-01-26T22:21:28.067Z,100755.56
2023-01-26T22:23:41.386Z,100756.08
2023-01-26T22:25:54.057Z,100755.75
2023-01-26T22:28:07.594Z,100758.14
2023-01-26T22:30:20.199Z,100752.84
2023-01-26T22:32:32.718Z,100748.05
2023-01-26T22:34:45.398Z,100750.27
2023-01-26T22:36:57.955Z,100745.64
2023-01-26T22:39:12.111Z,100748.72
2023-01-26T22:41:27.352Z,100749.41
2023-01-26T22:43:39.998Z,100752.83
2023-01-26T22:45:53.336Z,100753.67
2023-01-26T22:48:06.822Z,100752.83
2023-01-26T22:50:19.523Z,100751.64
2023-01-26T22:52:32.222Z,100747.88
2023-01-26T22:54:44.768Z,100751.80
2023-01-26T22:56:57.346Z,100753.01
2023-01-26T22:59:09.940Z,100749.94
2023-01-26T23:01:23.143Z,100751.30
2023-01-26T23:03:36.551Z,100753.85
2023-01-26T23:05:49.211Z,100758.46
2023-01-26T23:08:02.163Z,100759.14
2023-01-26T23:10:15.079Z,100757.61
2023-01-26T23:12:27.658Z,100753.52
2023-01-26T23:14:40.195Z,100754.70
2023-01-26T23:16:52.899Z,100754.02
2023-01-26T23:19:05.829Z,100751.80
2023-01-26T23:21:19.334Z,100749.74
2023-01-26T23:23:32.116Z,100746.15
2023-01-26T23:25:51.393Z,100749.05
2023-01-26T23:28:04.405Z,100746.48
2023-01-26T23:30:17.184Z,100746.67
2023-01-26T23:32:29.722Z,100746.66
2023-01-26T23:34:42.221Z,100746.15
2023-01-26T23:36:54.741Z,100745.13
2023-01-26T23:39:07.326Z,100745.47
2023-01-26T23:41:19.873Z,100746.84
2023-01-26T23:43:32.805Z,100744.79
2023-01-26T23:45:46.836Z,100750.42
2023-01-26T23:47:59.808Z,100753.33
2023-01-26T23:50:12.615Z,100748.72
2023-01-26T23:52:25.351Z,100747.69
2023-01-26T23:54:38.465Z,100748.89
2023-01-26T23:56:51.007Z,100750.41
2023-01-26T23:59:03.574Z,100748.71
